Time;durP1;ratioP1;P1;durP2;ratioP2;P2;SDS_P1;SDS_P2;PMS_P1;PMS_P2;Temp;Humidity;BMP_temperature;BMP_pressure;BME280_temperature;BME280_humidity;BME280_pressure;Samples;Min_cycle;Max_cycle;Signal;HPM_P1;HPM_P2
2023/01/25 09:46:24;;;;;;;25.43;11.57;;;2.00;99.90;;;;;;4968598;23;20243;-73
2023/01/25 09:49:01;;;;;;;26.60;11.60;;;1.90;99.90;;;;;;4947450;29;20582;-72
2023/01/25 09:51:46;;;;;;;22.17;11.07;;;1.70;99.90;;;;;;4953845;29;20203;-72
2023/01/25 09:54:16;;;;;;;23.17;10.50;;;1.70;99.90;;;;;;4934737;29;20298;-74
2023/01/25 09:56:44;;;;;;;23.80;12.33;;;1.80;99.90;;;;;;4928205;29;20215;-77
2023/01/25 09:59:16;;;;;;;27.33;10.53;;;1.80;99.90;;;;;;4933727;29;20602;-75
2023/01/25 10:01:49;;;;;;;26.20;12.43;;;1.90;99.90;;;;;;4934015;29;20213;-77
2023/01/25 10:04:19;;;;;;;23.37;11.70;;;2.00;99.90;;;;;;4933980;29;20295;-73
2023/01/25 10:06:50;;;;;;;26.27;11.40;;;2.20;99.90;;;;;;4937308;29;20217;-73
2023/01/25 10:09:27;;;;;;;24.33;11.97;;;2.30;99.90;;;;;;4938414;29;20305;-73
2023/01/25 10:11:54;;;;;;;23.80;10.97;;;2.30;99.90;;;;;;4939372;29;20208;-74
2023/01/25 10:14:21;;;;;;;26.50;11.53;;;2.40;99.90;;;;;;4939321;29;20685;-73
2023/01/25 10:17:03;;;;;;;26.97;11.40;;;2.60;99.90;;;;;;4939162;29;20684;-73
2023/01/25 10:19:46;;;;;;;25.23;12.00;;;2.80;99.90;;;;;;4939148;29;20236;-73
2023/01/25 10:22:17;;;;;;;23.77;11.63;;;2.80;99.90;;;;;;4938564;29;20238;-73
2023/01/25 10:25:12;;;;;;;24.30;11.23;;;2.90;99.90;;;;;;4938643;29;20566;-73
2023/01/25 10:27:45;;;;;;;25.87;12.33;;;3.00;99.90;;;;;;4930824;29;20213;-73
2023/01/25 10:30:25;;;;;;;27.27;12.43;;;2.90;99.90;;;;;;4938960;29;20213;-73
2023/01/25 10:32:57;;;;;;;26.07;11.63;;;3.00;99.90;;;;;;4938435;29;20235;-73
2023/01/25 10:35:29;;;;;;;24.37;11.17;;;3.00;99.90;;;;;;4938846;29;20209;-71
2023/01/25 10:37:59;;;;;;;29.20;12.60;;;3.00;99.90;;;;;;4938918;29;20288;-73
2023/01/25 10:40:29;;;;;;;26.63;12.13;;;3.00;99.90;;;;;;4938701;29;20209;-73
2023/01/25 10:43:02;;;;;;;27.40;12.47;;;2.90;99.90;;;;;;4938222;29;20233;-73
2023/01/25 10:45:29;;;;;;;27.90;12.37;;;2.80;99.90;;;;;;4938303;29;20220;-74
2023/01/25 10:48:02;;;;;;;25.17;11.73;;;2.90;99.90;;;;;;4938611;29;20213;-73
2023/01/25 10:50:47;;;;;;;30.63;12.80;;;3.00;99.90;;;;;;4938823;29;20612;-73
2023/01/25 10:53:39;;;;;;;28.50;12.80;;;2.90;99.90;;;;;;4938603;29;20595;-72
2023/01/25 10:56:30;;;;;;;26.97;12.73;;;2.90;99.90;;;;;;4938644;29;20216;-72
2023/01/25 10:59:08;;;;;;;27.60;12.20;;;2.70;99.90;;;;;;4928311;29;20240;-73
2023/01/25 11:01:36;;;;;;;27.70;11.90;;;2.40;99.90;;;;;;4938249;29;20755;-73
2023/01/25 11:04:30;;;;;;;27.97;13.30;;;2.30;99.90;;;;;;4938453;29;20600;-72
2023/01/25 11:06:57;;;;;;;26.60;12.37;;;2.20;99.90;;;;;;4938498;29;20660;-72
2023/01/25 11:09:33;;;;;;;29.47;12.00;;;2.20;99.90;;;;;;4938378;29;20212;-73
2023/01/25 11:12:01;;;;;;;29.70;13.00;;;2.40;99.90;;;;;;4938248;29;20267;-73
2023/01/25 11:14:30;;;;;;;26.90;11.57;;;2.70;99.90;;;;;;4938061;29;20215;-73
2023/01/25 11:16:58;;;;;;;27.93;12.27;;;2.80;99.90;;;;;;4937076;29;20215;-71
2023/01/25 11:19:31;;;;;;;26.17;11.93;;;2.70;99.90;;;;;;4938068;29;20244;-73
2023/01/25 11:22:00;;;;;;;27.67;12.77;;;2.70;99.90;;;;;;4938095;29;20239;-71
2023/01/25 11:24:28;;;;;;;26.83;12.70;;;2.70;99.90;;;;;;4938271;29;20213;-73
2023/01/25 11:27:20;;;;;;;30.63;11.83;;;2.80;99.90;;;;;;4937877;29;20260;-71
2023/01/25 11:30:06;;;;;;;27.47;13.33;;;2.70;99.90;;;;;;4937939;29;20213;-73
2023/01/25 11:32:34;;;;;;;29.47;12.63;;;2.70;99.90;;;;;;4937911;29;20236;-73
2023/01/25 11:35:02;;;;;;;28.20;13.03;;;2.70;99.90;;;;;;4937742;29;20664;-71
2023/01/25 11:37:41;;;;;;;28.97;14.10;;;2.80;99.90;;;;;;4937548;29;20209;-73
2023/01/25 11:40:18;;;;;;;29.73;13.17;;;2.70;99.90;;;;;;4937798;29;20243;-73
2023/01/25 11:42:57;;;;;;;29.50;13.23;;;2.80;99.90;;;;;;4937631;29;20611;-71
2023/01/25 11:45:46;;;;;;;32.03;13.60;;;3.00;99.90;;;;;;4937374;29;20239;-71
2023/01/25 11:48:26;;;;;;;27.43;12.13;;;3.00;99.90;;;;;;4937536;29;20242;-71
2023/01/25 11:51:03;;;;;;;29.77;12.73;;;3.00;99.90;;;;;;4937750;29;20213;-73
2023/01/25 11:53:52;;;;;;;31.03;13.80;;;3.00;99.90;;;;;;4933042;29;20225;-72
2023/01/25 11:56:29;;;;;;;29.57;12.63;;;2.90;99.90;;;;;;4926580;29;20210;-70
2023/01/25 11:59:09;;;;;;;27.67;13.30;;;3.00;99.90;;;;;;4919812;29;20248;-72
2023/01/25 12:01:56;;;;;;;31.10;13.37;;;3.10;99.90;;;;;;4924284;29;20209;-72
2023/01/25 12:04:46;;;;;;;31.23;12.97;;;3.00;99.90;;;;;;4924492;29;20210;-72
2023/01/25 12:07:19;;;;;;;28.80;12.30;;;3.10;99.90;;;;;;4922101;29;20205;-72
2023/01/25 12:10:01;;;;;;;30.70;13.70;;;3.00;99.90;;;;;;4928763;29;20215;-72
2023/01/25 12:12:41;;;;;;;29.10;11.97;;;3.00;99.90;;;;;;4931935;29;20232;-72
2023/01/25 12:15:34;;;;;;;28.73;13.33;;;3.00;99.90;;;;;;4928519;29;20269;-73
2023/01/25 12:18:23;;;;;;;28.43;12.13;;;3.00;99.90;;;;;;4926740;29;20209;-73
2023/01/25 12:21:05;;;;;;;28.80;13.47;;;3.00;99.90;;;;;;4936689;29;20209;-72
2023/01/25 12:23:52;;;;;;;29.90;12.17;;;3.00;99.90;;;;;;4934505;29;20225;-72
2023/01/25 12:26:26;;;;;;;29.30;12.43;;;3.10;99.90;;;;;;4928307;29;20204;-72
2023/01/25 12:29:02;;;;;;;31.30;13.73;;;2.90;99.90;;;;;;4936092;29;20303;-72
2023/01/25 12:31:39;;;;;;;29.10;12.40;;;2.90;99.90;;;;;;4919957;29;20264;-72
2023/01/25 12:34:12;;;;;;;29.60;12.00;;;2.90;99.90;;;;;;4924877;29;20204;-72
2023/01/25 12:36:43;;;;;;;32.20;13.03;;;2.80;99.90;;;;;;4921690;29;20736;-72
2023/01/25 12:39:14;;;;;;;32.13;12.93;;;2.80;99.90;;;;;;4932714;29;20233;-72
2023/01/25 12:41:45;;;;;;;36.17;13.10;;;2.90;99.90;;;;;;4920244;29;20688;-72
2023/01/25 12:44:19;;;;;;;32.47;14.53;;;3.20;99.90;;;;;;4933176;29;20690;-72
2023/01/25 12:46:54;;;;;;;35.50;13.97;;;3.50;99.90;;;;;;4928342;29;20220;-72
2023/01/25 12:49:29;;;;;;;29.83;12.97;;;3.20;99.90;;;;;;4921319;29;20204;-73
2023/01/25 12:51:59;;;;;;;31.07;13.33;;;3.10;99.90;;;;;;4927093;29;20212;-72
2023/01/25 12:54:33;;;;;;;32.87;12.93;;;3.20;99.90;;;;;;4929968;29;20298;-72
2023/01/25 12:57:15;;;;;;;30.70;12.80;;;3.50;99.90;;;;;;4927324;29;20679;-72
2023/01/25 12:59:49;;;;;;;30.10;13.47;;;3.20;99.90;;;;;;4928933;29;20251;-72
2023/01/25 13:02:49;;;;;;;28.37;13.30;;;3.20;99.90;;;;;;4925038;29;20236;-73
2023/01/25 13:05:25;;;;;;;27.73;13.17;;;3.20;99.90;;;;;;4924559;29;20212;-71
2023/01/25 13:08:03;;;;;;;31.73;12.07;;;3.30;99.90;;;;;;4921903;29;20201;-68
2023/01/25 13:10:38;;;;;;;34.93;15.13;;;3.10;99.90;;;;;;4924702;29;20417;-71
2023/01/25 13:13:20;;;;;;;28.87;12.33;;;3.20;99.90;;;;;;4923752;29;20242;-72
2023/01/25 13:15:47;;;;;;;29.70;13.37;;;3.50;99.90;;;;;;4928632;29;20216;-72
2023/01/25 13:18:37;;;;;;;27.87;13.13;;;3.50;99.90;;;;;;4919806;29;20217;-73
2023/01/25 13:21:07;;;;;;;27.97;12.37;;;3.70;99.90;;;;;;4928702;29;20726;-71
2023/01/25 13:23:36;;;;;;;32.93;13.43;;;3.60;99.90;;;;;;4929143;29;20229;-71
2023/01/25 13:26:44;;;;;;;32.80;13.90;;;3.40;99.90;;;;;;4929156;29;20310;-71
2023/01/25 13:29:53;;;;;;;28.67;13.23;;;3.40;99.90;;;;;;4929452;29;20223;-72
2023/01/25 13:33:02;;;;;;;32.43;13.37;;;3.50;99.90;;;;;;4893120;29;20240;-71
2023/01/25 13:35:40;;;;;;;26.67;13.33;;;3.60;99.90;;;;;;4917762;29;20209;-71
2023/01/25 13:38:25;;;;;;;30.73;13.30;;;3.60;99.90;;;;;;4922958;29;20292;-72
2023/01/25 13:41:13;;;;;;;31.67;12.97;;;3.30;99.90;;;;;;4927333;29;20232;-71
2023/01/25 13:43:52;;;;;;;29.30;13.27;;;3.10;99.90;;;;;;4925202;29;20224;-71
2023/01/25 13:46:23;;;;;;;29.00;11.97;;;3.00;99.90;;;;;;4929019;29;20667;-71
2023/01/25 13:49:00;;;;;;;31.03;13.77;;;2.80;99.90;;;;;;4933770;29;20216;-71
2023/01/25 13:51:31;;;;;;;31.60;13.17;;;2.90;99.90;;;;;;4927908;29;20211;-71
2023/01/25 13:53:59;;;;;;;27.80;13.20;;;3.10;99.90;;;;;;4933163;29;20232;-71
2023/01/25 13:56:30;;;;;;;33.97;14.60;;;3.10;99.90;;;;;;4926747;29;20208;-70
2023/01/25 13:58:59;;;;;;;27.60;13.17;;;3.10;99.90;;;;;;4925714;29;20233;-71
2023/01/25 14:01:27;;;;;;;31.87;14.60;;;3.30;99.90;;;;;;4923725;29;20241;-71
2023/01/25 14:03:58;;;;;;;31.03;13.43;;;3.30;99.90;;;;;;4929701;29;20229;-71
2023/01/25 14:06:27;;;;;;;32.43;13.30;;;3.30;99.90;;;;;;4923170;29;20210;-72
2023/01/25 14:08:58;;;;;;;29.50;13.60;;;3.40;99.90;;;;;;4927889;29;20206;-72
2023/01/25 14:11:27;;;;;;;34.70;14.27;;;3.40;99.90;;;;;;4924092;29;20224;-74
2023/01/25 14:14:01;;;;;;;35.70;13.93;;;3.40;99.90;;;;;;4927285;29;20232;-74
2023/01/25 14:16:28;;;;;;;33.10;14.30;;;3.20;99.90;;;;;;4918279;29;20219;-71
2023/01/25 14:18:57;;;;;;;32.13;13.90;;;3.10;99.90;;;;;;4922318;29;20202;-71
2023/01/25 14:21:24;;;;;;;32.20;13.90;;;3.30;99.90;;;;;;4930177;29;20704;-71
2023/01/25 14:23:52;;;;;;;33.50;13.23;;;3.20;99.90;;;;;;4923085;29;20280;-72
2023/01/25 14:26:21;;;;;;;38.30;14.17;;;2.90;99.90;;;;;;4926806;29;20676;-72
2023/01/25 14:28:51;;;;;;;30.73;12.90;;;3.00;99.90;;;;;;4926762;29;20228;-71
2023/01/25 14:31:25;;;;;;;36.07;14.53;;;3.10;99.90;;;;;;4921034;29;20668;-71
2023/01/25 14:33:57;;;;;;;33.90;14.93;;;3.20;99.90;;;;;;4921073;29;20240;-72
2023/01/25 14:36:26;;;;;;;38.63;14.73;;;3.40;99.90;;;;;;4932481;29;20210;-72
2023/01/25 14:38:53;;;;;;;35.10;15.53;;;3.50;99.90;;;;;;4922045;29;20205;-73
2023/01/25 14:41:25;;;;;;;33.93;14.50;;;3.50;99.90;;;;;;4922706;29;20240;-74
2023/01/25 14:43:54;;;;;;;37.70;14.93;;;3.50;99.90;;;;;;4918490;29;20229;-71
2023/01/25 14:46:28;;;;;;;34.93;14.33;;;3.40;99.90;;;;;;4928789;29;20217;-73
2023/01/25 14:49:09;;;;;;;36.53;15.57;;;3.30;99.90;;;;;;4921294;29;20572;-73
2023/01/25 14:51:42;;;;;;;38.73;14.10;;;3.40;99.90;;;;;;4924859;29;20209;-73
2023/01/25 14:54:16;;;;;;;37.53;15.47;;;3.30;99.90;;;;;;4932529;29;20212;-71
2023/01/25 14:56:45;;;;;;;36.97;14.90;;;3.40;99.90;;;;;;4931616;29;20204;-72
2023/01/25 14:59:24;;;;;;;34.77;13.90;;;3.50;99.90;;;;;;4937685;29;20212;-71
2023/01/25 15:01:54;;;;;;;32.80;14.93;;;3.60;99.90;;;;;;4922206;29;20219;-74
2023/01/25 15:04:21;;;;;;;34.37;13.93;;;3.50;99.90;;;;;;4936057;29;20209;-71
2023/01/25 15:06:49;;;;;;;42.40;15.70;;;3.40;99.90;;;;;;4924968;29;20220;-72
2023/01/25 15:09:37;;;;;;;27.57;12.97;;;3.20;99.90;;;;;;4935474;29;20308;-73
2023/01/25 15:12:20;;;;;;;32.73;13.60;;;3.10;99.90;;;;;;4924923;29;20288;-71
2023/01/25 15:14:48;;;;;;;34.67;14.77;;;3.00;99.90;;;;;;4931494;29;20676;-71
2023/01/25 15:17:37;;;;;;;39.43;15.43;;;2.90;99.90;;;;;;4927916;29;20212;-71
2023/01/25 15:20:04;;;;;;;36.07;14.10;;;2.80;99.90;;;;;;4924963;29;20362;-71
2023/01/25 15:22:31;;;;;;;33.33;12.77;;;2.70;99.90;;;;;;4918064;29;20265;-71
2023/01/25 15:24:58;;;;;;;36.40;14.43;;;2.70;99.90;;;;;;4916979;29;20214;-71
2023/01/25 15:27:25;;;;;;;29.37;13.00;;;2.50;99.90;;;;;;4916534;29;20215;-72
2023/01/25 15:29:52;;;;;;;32.90;13.50;;;2.40;99.90;;;;;;4918144;29;20310;-72
2023/01/25 15:32:21;;;;;;;32.70;14.33;;;2.40;99.90;;;;;;4918448;29;20233;-72
2023/01/25 15:34:50;;;;;;;33.17;14.63;;;2.40;99.90;;;;;;4918632;29;20560;-73
2023/01/25 15:37:17;;;;;;;29.90;14.23;;;2.50;99.90;;;;;;4918721;29;20210;-73
2023/01/25 15:39:43;;;;;;;35.57;13.70;;;2.50;99.90;;;;;;4918996;29;20210;-72
2023/01/25 15:42:10;;;;;;;33.00;13.87;;;2.30;99.90;;;;;;4919637;29;20233;-73
2023/01/25 15:44:37;;;;;;;35.57;15.40;;;2.20;99.90;;;;;;4918833;29;20213;-74
2023/01/25 15:47:05;;;;;;;32.00;14.00;;;2.10;99.90;;;;;;4918820;29;20241;-72
2023/01/25 15:49:35;;;;;;;35.80;13.50;;;1.90;99.90;;;;;;4918439;29;20213;-73
2023/01/25 15:52:03;;;;;;;31.00;13.17;;;2.00;99.90;;;;;;4918748;29;20320;-73
2023/01/25 15:54:30;;;;;;;34.90;12.17;;;2.00;99.90;;;;;;4918683;29;20217;-73
2023/01/25 15:56:58;;;;;;;34.90;14.13;;;1.80;99.90;;;;;;4918489;29;20676;-71
2023/01/25 15:59:25;;;;;;;31.87;13.63;;;1.90;99.90;;;;;;4918513;29;20236;-72
2023/01/25 16:01:52;;;;;;;31.13;13.43;;;2.00;99.90;;;;;;4918111;29;20237;-72
2023/01/25 16:04:19;;;;;;;34.77;14.17;;;1.90;99.90;;;;;;4917553;29;20676;-73
2023/01/25 16:06:48;;;;;;;35.33;14.60;;;2.00;99.90;;;;;;4918219;29;20542;-73
2023/01/25 16:09:19;;;;;;;30.20;13.60;;;2.00;99.90;;;;;;4918328;29;20312;-73
2023/01/25 16:11:47;;;;;;;34.77;13.63;;;2.00;99.90;;;;;;4918113;29;20296;-73
2023/01/25 16:14:13;;;;;;;35.77;13.97;;;2.10;99.90;;;;;;4918111;29;20214;-73
2023/01/25 16:16:43;;;;;;;35.40;14.03;;;2.20;99.90;;;;;;4918124;29;20242;-72
2023/01/25 16:19:12;;;;;;;34.97;13.97;;;2.20;99.90;;;;;;4917817;29;20206;-73
2023/01/25 16:21:40;;;;;;;34.43;13.80;;;2.10;99.90;;;;;;4917453;29;20241;-73
2023/01/25 16:24:07;;;;;;;33.90;13.70;;;2.00;99.90;;;;;;4917371;29;20225;-71
2023/01/25 16:26:37;;;;;;;37.17;14.43;;;1.80;99.90;;;;;;4917697;29;20209;-71
2023/01/25 16:29:04;;;;;;;32.47;13.17;;;1.70;99.90;;;;;;4917671;29;20205;-71
2023/01/25 16:31:31;;;;;;;35.00;14.13;;;1.60;99.90;;;;;;4917431;29;20216;-71
2023/01/25 16:33:57;;;;;;;35.43;13.63;;;1.50;99.90;;;;;;4917529;29;20566;-71
2023/01/25 16:36:25;;;;;;;36.27;14.40;;;1.50;99.90;;;;;;4917622;29;20236;-71
2023/01/25 16:38:51;;;;;;;32.10;14.63;;;1.50;99.90;;;;;;4917749;29;20210;-71
2023/01/25 16:41:18;;;;;;;34.83;13.83;;;1.50;99.90;;;;;;4917594;29;20244;-71
2023/01/25 16:43:48;;;;;;;41.60;15.50;;;1.30;99.90;;;;;;4917088;29;20236;-72
2023/01/25 16:46:17;;;;;;;32.40;13.27;;;1.20;99.90;;;;;;4917398;29;20228;-73
2023/01/25 16:48:45;;;;;;;36.37;13.20;;;1.10;99.90;;;;;;4917594;29;20210;-71
2023/01/25 16:51:17;;;;;;;31.77;12.90;;;1.00;99.90;;;;;;4917394;29;20209;-71
2023/01/25 16:53:45;;;;;;;33.83;14.27;;;1.10;99.90;;;;;;4917154;29;20233;-73
2023/01/25 16:56:17;;;;;;;38.07;15.20;;;1.20;99.90;;;;;;4917385;29;20215;-72
2023/01/25 16:58:43;;;;;;;46.67;14.80;;;1.20;99.90;;;;;;4917303;29;20684;-73
2023/01/25 17:01:13;;;;;;;34.37;13.93;;;1.30;99.90;;;;;;4917124;29;20241;-73
2023/01/25 17:03:39;;;;;;;32.17;13.73;;;1.20;99.90;;;;;;4917150;29;20234;-72
2023/01/25 17:06:07;;;;;;;36.20;15.20;;;1.20;99.90;;;;;;4916846;29;20565;-73
2023/01/25 17:08:34;;;;;;;36.07;12.57;;;1.20;99.90;;;;;;4917367;29;20214;-73
2023/01/25 17:11:05;;;;;;;37.10;15.23;;;1.30;99.90;;;;;;4917155;29;20210;-73
2023/01/25 17:13:32;;;;;;;39.07;14.23;;;1.30;99.90;;;;;;4917043;29;20230;-72
2023/01/25 17:16:00;;;;;;;33.47;13.80;;;1.20;99.90;;;;;;4916475;29;20220;-72
2023/01/25 17:18:28;;;;;;;35.57;13.90;;;1.30;99.90;;;;;;4917248;29;20213;-73
2023/01/25 17:20:59;;;;;;;43.20;16.40;;;1.40;99.90;;;;;;4917280;29;20275;-73
2023/01/25 17:23:27;;;;;;;41.00;15.83;;;1.30;99.90;;;;;;4916945;29;20225;-73
2023/01/25 17:25:55;;;;;;;34.83;13.63;;;1.40;99.90;;;;;;4917233;29;20213;-72
2023/01/25 17:28:22;;;;;;;44.50;15.40;;;1.40;99.90;;;;;;4917059;29;20205;-73
2023/01/25 17:30:49;;;;;;;39.17;13.83;;;1.40;99.90;;;;;;4917090;29;20660;-73
2023/01/25 17:33:16;;;;;;;33.03;13.73;;;1.20;99.90;;;;;;4916644;29;20285;-73
2023/01/25 17:35:45;;;;;;;40.33;13.47;;;1.10;99.90;;;;;;4916615;29;20698;-73
2023/01/25 17:38:11;;;;;;;34.30;12.83;;;1.00;99.90;;;;;;4916575;29;20213;-74
2023/01/25 17:40:38;;;;;;;41.93;15.83;;;1.00;99.90;;;;;;4916675;29;20225;-73
2023/01/25 17:43:05;;;;;;;36.37;15.07;;;0.90;99.90;;;;;;4916719;29;20225;-73
2023/01/25 17:45:37;;;;;;;44.23;15.57;;;1.00;99.90;;;;;;4916683;29;20221;-73
2023/01/25 17:48:04;;;;;;;40.93;13.90;;;0.90;99.90;;;;;;4916429;29;20221;-73
2023/01/25 17:50:31;;;;;;;38.33;15.93;;;0.80;99.90;;;;;;4916375;29;20272;-73
2023/01/25 17:52:59;;;;;;;39.87;15.80;;;0.80;99.90;;;;;;4916649;29;20584;-73
2023/01/25 17:55:26;;;;;;;40.60;15.23;;;0.80;99.90;;;;;;4916771;29;20209;-74
2023/01/25 17:57:52;;;;;;;42.63;15.93;;;1.00;99.90;;;;;;4916310;29;20225;-74
2023/01/25 18:00:20;;;;;;;40.57;14.70;;;1.00;99.90;;;;;;4916326;29;20215;-73
2023/01/25 18:02:47;;;;;;;45.77;15.90;;;1.10;99.90;;;;;;4916223;29;20225;-73
2023/01/25 18:05:14;;;;;;;38.43;14.87;;;1.10;99.90;;;;;;4916213;29;20224;-74
2023/01/25 18:07:41;;;;;;;35.97;13.87;;;1.10;99.90;;;;;;4916422;29;20205;-72
2023/01/25 18:10:10;;;;;;;40.50;15.60;;;1.10;99.90;;;;;;4916271;29;20210;-72
2023/01/25 18:12:37;;;;;;;38.63;15.53;;;1.00;99.90;;;;;;4916318;29;20240;-73
2023/01/25 18:15:05;;;;;;;39.80;15.17;;;1.10;99.90;;;;;;4916520;29;20217;-72
2023/01/25 18:17:34;;;;;;;41.50;14.43;;;1.00;99.90;;;;;;4916219;29;20216;-74
2023/01/25 18:20:03;;;;;;;42.50;15.13;;;1.00;99.90;;;;;;4916547;29;20630;-74
2023/01/25 18:22:31;;;;;;;40.10;14.40;;;1.00;99.90;;;;;;4916466;29;20241;-73
2023/01/25 18:24:58;;;;;;;37.93;14.73;;;1.00;99.90;;;;;;4916820;29;20261;-74
2023/01/25 18:27:27;;;;;;;41.67;13.97;;;0.90;99.90;;;;;;4919257;29;20205;-74
2023/01/25 18:29:59;;;;;;;40.67;15.23;;;0.90;99.90;;;;;;4919935;29;20729;-73
2023/01/25 18:32:26;;;;;;;42.23;14.37;;;0.90;99.90;;;;;;4919925;29;20237;-74
2023/01/25 18:34:53;;;;;;;38.73;15.30;;;1.10;99.90;;;;;;4920055;29;20252;-73
2023/01/25 18:37:22;;;;;;;36.07;15.70;;;1.30;99.90;;;;;;4919860;29;20296;-73
2023/01/25 18:39:50;;;;;;;37.27;13.80;;;1.30;99.90;;;;;;4919799;29;20261;-73
2023/01/25 18:42:18;;;;;;;42.10;13.93;;;1.20;99.90;;;;;;4919695;29;20242;-74
2023/01/25 18:44:47;;;;;;;42.27;14.40;;;1.00;99.90;;;;;;4919711;29;20209;-74
2023/01/25 18:47:17;;;;;;;37.00;14.53;;;1.00;99.90;;;;;;4919445;29;20268;-72
2023/01/25 18:49:44;;;;;;;36.17;14.27;;;1.00;99.90;;;;;;4919728;29;20572;-74
2023/01/25 18:52:11;;;;;;;38.07;12.17;;;1.00;99.90;;;;;;4919339;29;20229;-73
2023/01/25 18:54:38;;;;;;;38.27;14.70;;;1.00;99.90;;;;;;4919139;29;20205;-73
2023/01/25 18:57:05;;;;;;;46.53;15.30;;;0.90;99.90;;;;;;4919468;29;20213;-73
2023/01/25 18:59:32;;;;;;;37.77;13.87;;;0.80;99.90;;;;;;4919146;29;20296;-74
2023/01/25 19:02:00;;;;;;;41.63;15.13;;;1.00;99.90;;;;;;4924408;29;20248;-74
2023/01/25 19:04:27;;;;;;;37.70;14.83;;;1.00;99.90;;;;;;4921015;29;20684;-74
2023/01/25 19:06:56;;;;;;;42.80;14.77;;;1.00;99.90;;;;;;4924721;29;20210;-74
2023/01/25 19:09:23;;;;;;;47.13;14.43;;;1.10;99.90;;;;;;4929745;29;20687;-73
2023/01/25 19:11:50;;;;;;;33.70;12.67;;;1.10;99.90;;;;;;4921725;29;20209;-72
2023/01/25 19:14:17;;;;;;;34.50;13.47;;;1.20;99.90;;;;;;4925227;29;20213;-72
2023/01/25 19:16:44;;;;;;;42.60;14.63;;;1.20;99.90;;;;;;4926628;29;20214;-72
2023/01/25 19:19:13;;;;;;;47.47;14.43;;;1.30;99.90;;;;;;4924905;29;20210;-74
2023/01/25 19:21:40;;;;;;;38.30;14.47;;;1.30;99.90;;;;;;4933444;29;20235;-73
2023/01/25 19:24:10;;;;;;;45.10;14.10;;;1.30;99.90;;;;;;4926495;29;20214;-74
2023/01/25 19:26:37;;;;;;;37.90;14.40;;;1.20;99.90;;;;;;4935517;29;20204;-74
2023/01/25 19:29:04;;;;;;;36.50;13.60;;;1.20;99.90;;;;;;4922828;29;20213;-73
2023/01/25 19:31:31;;;;;;;42.63;16.70;;;1.30;99.90;;;;;;4934998;29;20567;-74
2023/01/25 19:34:00;;;;;;;43.33;16.77;;;1.40;99.90;;;;;;4933068;29;20233;-73
2023/01/25 19:36:29;;;;;;;46.20;14.07;;;1.40;99.90;;;;;;4929344;29;20209;-74
2023/01/25 19:38:56;;;;;;;39.77;14.57;;;1.50;99.90;;;;;;4936026;29;20211;-73
2023/01/25 19:41:26;;;;;;;38.50;14.67;;;1.40;99.90;;;;;;4923467;29;20240;-77
2023/01/25 19:43:54;;;;;;;40.17;14.43;;;1.30;99.90;;;;;;4935440;29;20245;-72
2023/01/25 19:46:22;;;;;;;44.03;14.77;;;1.30;99.90;;;;;;4932932;29;20221;-73
2023/01/25 19:48:51;;;;;;;40.50;14.03;;;1.20;99.90;;;;;;4935885;29;20205;-74
2023/01/25 19:51:20;;;;;;;41.70;15.63;;;1.20;99.90;;;;;;4921871;29;20224;-77
2023/01/25 19:53:53;;;;;;;47.40;15.77;;;1.20;99.90;;;;;;4920724;29;20232;-77
2023/01/25 19:56:20;;;;;;;39.07;16.03;;;1.20;99.90;;;;;;4919655;29;20298;-74
2023/01/25 19:58:49;;;;;;;40.37;13.83;;;1.20;99.90;;;;;;4924409;29;20273;-82
2023/01/25 20:01:18;;;;;;;43.53;15.40;;;1.20;99.90;;;;;;4935928;29;20282;-75
2023/01/25 20:03:45;;;;;;;49.80;15.70;;;1.10;99.90;;;;;;4936255;29;20234;-73
2023/01/25 20:06:14;;;;;;;44.43;14.77;;;1.20;99.90;;;;;;4936018;29;20653;-73
2023/01/25 20:08:42;;;;;;;38.60;14.03;;;1.10;99.90;;;;;;4929690;29;20599;-72
2023/01/25 20:11:13;;;;;;;37.87;12.60;;;1.10;99.90;;;;;;4925772;29;20218;-72
2023/01/25 20:13:40;;;;;;;36.20;13.53;;;1.10;99.90;;;;;;4936956;29;20231;-72
2023/01/25 20:16:08;;;;;;;43.03;14.23;;;1.10;99.90;;;;;;4936720;29;20205;-72
2023/01/25 20:18:35;;;;;;;43.77;14.60;;;1.00;99.90;;;;;;4937038;29;20546;-72
2023/01/25 20:21:04;;;;;;;33.03;13.43;;;1.10;99.90;;;;;;4936645;29;20212;-72
2023/01/25 20:23:32;;;;;;;48.37;15.23;;;1.20;99.90;;;;;;4936910;29;20232;-72
2023/01/25 20:25:59;;;;;;;43.47;13.43;;;1.30;99.90;;;;;;4936339;29;20219;-72
2023/01/25 20:28:28;;;;;;;38.00;13.97;;;1.30;99.90;;;;;;4936499;29;20204;-72
2023/01/25 20:30:57;;;;;;;38.67;13.10;;;1.20;99.90;;;;;;4936187;29;20205;-72
2023/01/25 20:33:23;;;;;;;37.10;12.63;;;1.20;99.90;;;;;;4936379;29;20329;-72
2023/01/25 20:35:50;;;;;;;37.47;13.03;;;1.20;99.90;;;;;;4936519;29;20215;-72
2023/01/25 20:38:17;;;;;;;43.77;15.17;;;1.20;99.90;;;;;;4936859;29;20300;-72
2023/01/25 20:40:44;;;;;;;40.30;14.90;;;1.20;99.90;;;;;;4936913;29;20268;-72
2023/01/25 20:43:11;;;;;;;37.33;13.57;;;1.30;99.90;;;;;;4936118;29;20718;-72
2023/01/25 20:45:39;;;;;;;46.63;13.70;;;1.20;99.90;;;;;;4936067;29;20216;-72
2023/01/25 20:48:06;;;;;;;34.07;12.73;;;1.30;99.90;;;;;;4936174;29;20213;-72
2023/01/25 20:50:33;;;;;;;38.97;14.27;;;1.30;99.90;;;;;;4935335;29;20216;-72
2023/01/25 20:53:00;;;;;;;43.37;13.03;;;1.30;99.90;;;;;;4927440;29;20232;-72
2023/01/25 20:55:26;;;;;;;38.53;13.50;;;1.30;99.90;;;;;;4926555;29;20216;-72
2023/01/25 20:57:53;;;;;;;41.33;14.03;;;1.20;99.90;;;;;;4935871;29;20212;-72
2023/01/25 21:00:22;;;;;;;40.03;12.30;;;1.20;99.90;;;;;;4936361;29;20559;-72
2023/01/25 21:02:50;;;;;;;41.43;13.53;;;1.20;99.90;;;;;;4935452;29;20726;-72
2023/01/25 21:05:17;;;;;;;35.90;11.17;;;1.20;99.90;;;;;;4935789;29;20219;-72
2023/01/25 21:07:43;;;;;;;41.50;13.33;;;1.30;99.90;;;;;;4934334;29;20216;-72
2023/01/25 21:10:11;;;;;;;29.00;12.17;;;1.50;99.90;;;;;;4924575;29;20216;-72
2023/01/25 21:12:38;;;;;;;43.33;11.23;;;1.30;99.90;;;;;;4935315;29;20259;-72
2023/01/25 21:15:06;;;;;;;43.70;14.00;;;1.20;99.90;;;;;;4935604;29;20213;-72
2023/01/25 21:17:33;;;;;;;33.50;11.80;;;1.20;99.90;;;;;;4935314;29;20563;-72
2023/01/25 21:20:01;;;;;;;41.67;12.97;;;1.00;99.90;;;;;;4935802;29;20648;-72
2023/01/25 21:22:28;;;;;;;35.90;13.07;;;1.00;99.90;;;;;;4935346;29;20732;-72
2023/01/25 21:24:55;;;;;;;40.73;13.23;;;1.00;99.90;;;;;;4935452;29;20209;-72
2023/01/25 21:27:23;;;;;;;42.57;12.33;;;1.10;99.90;;;;;;4935363;29;20319;-72
2023/01/25 21:29:50;;;;;;;37.77;13.03;;;1.10;99.90;;;;;;4935864;29;20201;-72
2023/01/25 21:32:17;;;;;;;33.37;13.23;;;1.10;99.90;;;;;;4935234;29;20722;-72
2023/01/25 21:34:44;;;;;;;47.30;13.67;;;1.10;99.90;;;;;;4936098;29;20208;-71
2023/01/25 21:37:12;;;;;;;43.27;12.23;;;1.10;99.90;;;;;;4936877;29;20205;-71
2023/01/25 21:39:39;;;;;;;42.50;13.20;;;1.10;99.90;;;;;;4936042;29;20213;-72
2023/01/25 21:42:06;;;;;;;51.57;13.87;;;1.00;99.90;;;;;;4935955;29;20232;-72
2023/01/25 21:47:17;;;;;;;36.93;12.80;;;0.80;99.90;;;;;;4935091;29;20220;-72
2023/01/25 21:52:29;;;;;;;32.60;11.87;;;0.90;99.90;;;;;;4925060;29;20235;-72
2023/01/25 21:54:56;;;;;;;32.57;11.73;;;0.90;99.90;;;;;;4934907;29;20684;-72
2023/01/25 21:57:23;;;;;;;40.60;13.70;;;0.90;99.90;;;;;;4935244;29;20660;-72
2023/01/25 21:59:49;;;;;;;35.97;11.27;;;1.00;99.90;;;;;;4935201;29;20563;-72
2023/01/25 22:02:16;;;;;;;39.77;12.97;;;1.00;99.90;;;;;;4937869;29;20545;-72
2023/01/25 22:04:43;;;;;;;35.03;12.03;;;1.00;99.90;;;;;;4938948;29;20209;-72
2023/01/25 22:07:10;;;;;;;38.20;12.43;;;1.00;99.90;;;;;;4939466;29;20219;-72
2023/01/25 22:09:38;;;;;;;36.53;12.17;;;1.00;99.90;;;;;;4926452;29;20200;-71
2023/01/25 22:12:05;;;;;;;39.43;12.40;;;1.00;99.90;;;;;;4939233;29;20236;-72
2023/01/25 22:14:32;;;;;;;44.63;12.50;;;1.00;99.90;;;;;;4938480;29;20575;-72
2023/01/25 22:16:59;;;;;;;36.53;13.33;;;0.90;99.90;;;;;;4938719;29;20209;-72
2023/01/25 22:19:25;;;;;;;33.30;11.90;;;0.70;99.90;;;;;;4938992;29;20209;-72
2023/01/25 22:21:52;;;;;;;48.83;13.13;;;0.70;99.90;;;;;;4938711;29;20229;-72
2023/01/25 22:24:19;;;;;;;39.10;11.33;;;0.70;99.90;;;;;;4939080;29;20212;-72
2023/01/25 22:26:58;;;;;;;35.33;12.50;;;0.80;99.90;;;;;;4939126;29;20213;-72
2023/01/25 22:29:25;;;;;;;41.80;12.93;;;0.90;99.90;;;;;;4938673;29;20205;-72
2023/01/25 22:31:52;;;;;;;35.10;11.70;;;0.90;99.90;;;;;;4938510;29;20228;-72
2023/01/25 22:34:19;;;;;;;38.50;11.83;;;0.90;99.90;;;;;;4938785;29;20209;-72
2023/01/25 22:36:47;;;;;;;33.87;11.93;;;0.90;99.90;;;;;;4937895;29;20219;-72
2023/01/25 22:39:14;;;;;;;40.60;12.60;;;1.10;99.90;;;;;;4926274;29;20240;-72
2023/01/25 22:41:42;;;;;;;40.73;12.27;;;1.20;99.90;;;;;;4938027;29;20213;-72
2023/01/25 22:44:10;;;;;;;39.57;12.00;;;1.30;99.90;;;;;;4938564;29;20676;-72
2023/01/25 22:46:37;;;;;;;39.63;13.23;;;1.20;99.90;;;;;;4938273;29;20687;-72